createdAt,value
2019-03-04T00:02:08.068Z,94.70
2019-03-04T00:04:43.874Z,95.00
2019-03-04T00:07:17.167Z,95.10
2019-03-04T00:09:50.890Z,95.10
2019-03-04T00:12:24.324Z,95.30
2019-03-04T00:14:57.588Z,95.30
2019-03-04T00:17:30.854Z,95.30
2019-03-04T00:20:07.917Z,95.30
2019-03-04T00:22:41.163Z,95.30
2019-03-04T00:25:15.557Z,94.90
2019-03-04T00:27:48.812Z,94.70
2019-03-04T00:30:22.095Z,94.70
2019-03-04T00:32:55.441Z,94.90
2019-03-04T00:35:28.916Z,94.70
2019-03-04T00:38:03.863Z,94.60
2019-03-04T00:40:37.161Z,94.40
2019-03-04T00:43:10.374Z,94.30
2019-03-04T00:45:44.146Z,94.40
2019-03-04T00:48:17.453Z,94.10
2019-03-04T00:50:52.520Z,94.00
2019-03-04T00:53:25.770Z,94.20
2019-03-04T00:55:59.052Z,93.90
2019-03-04T00:58:33.142Z,94.10
2019-03-04T01:01:06.605Z,93.90
2019-03-04T01:03:39.957Z,93.80
2019-03-04T01:06:16.240Z,93.70
2019-03-04T01:08:49.473Z,93.60
2019-03-04T01:11:22.862Z,93.40
2019-03-04T01:13:56.224Z,93.40
2019-03-04T01:16:29.515Z,93.40
2019-03-04T01:19:02.830Z,93.30
2019-03-04T01:21:36.095Z,93.30
2019-03-04T01:27:17.169Z,93.30
2019-03-04T01:29:57.153Z,93.20
2019-03-04T01:32:30.499Z,93.30
2019-03-04T01:35:03.782Z,93.40
2019-03-04T01:37:37.044Z,93.30
2019-03-04T01:40:19.241Z,93.30
2019-03-04T01:42:52.633Z,93.10
2019-03-04T01:45:25.944Z,93.00
2019-03-04T01:48:00.484Z,92.90
2019-03-04T01:50:33.892Z,92.70
2019-03-04T01:53:07.136Z,92.50
2019-03-04T01:55:40.414Z,92.40
2019-03-04T01:58:13.682Z,92.40
2019-03-04T02:00:47.444Z,92.50
2019-03-04T02:03:20.743Z,92.50
2019-03-04T02:05:54.102Z,92.40
2019-03-04T02:08:27.382Z,92.80
2019-03-04T02:11:01.767Z,92.50
2019-03-04T02:13:35.076Z,92.50
2019-03-04T02:16:08.456Z,92.50
2019-03-04T02:18:41.827Z,92.40
2019-03-04T02:21:15.202Z,92.30
2019-03-04T02:23:48.583Z,92.40
2019-03-04T02:26:21.968Z,92.30
2019-03-04T02:28:55.222Z,92.30
2019-03-04T02:31:28.529Z,92.30
2019-03-04T02:34:01.884Z,92.50
2019-03-04T02:36:35.152Z,92.40
2019-03-04T02:39:10.634Z,92.60
2019-03-04T02:41:44.102Z,92.70
2019-03-04T02:44:17.385Z,92.80
2019-03-04T02:46:52.649Z,92.70
2019-03-04T02:49:27.112Z,92.80
2019-03-04T02:52:47.738Z,92.70
2019-03-04T02:54:46.425Z,92.90
2019-03-04T02:57:19.869Z,92.90
2019-03-04T02:59:54.512Z,92.90
2019-03-04T03:05:18.450Z,93.00
2019-03-04T03:07:51.702Z,93.00
2019-03-04T03:10:25.179Z,92.90
2019-03-04T03:12:58.454Z,93.10
2019-03-04T03:15:31.930Z,92.90
2019-03-04T03:18:05.153Z,92.90
2019-03-04T03:20:39.737Z,93.10
2019-03-04T03:23:14.113Z,93.10
2019-03-04T03:25:47.534Z,93.10
2019-03-04T03:28:20.733Z,93.00
2019-03-04T03:30:54.064Z,92.80
2019-03-04T03:33:27.287Z,92.80
2019-03-04T03:36:21.137Z,92.60
2019-03-04T03:38:54.374Z,92.50
2019-03-04T03:44:31.035Z,92.50
2019-03-04T03:47:04.324Z,92.60
2019-03-04T03:50:06.575Z,92.50
2019-03-04T03:52:39.748Z,92.50
2019-03-04T03:55:14.727Z,92.50
2019-03-04T03:57:48.016Z,92.50
2019-03-04T04:00:23.083Z,92.50
2019-03-04T04:02:56.350Z,92.50
2019-03-04T04:05:29.594Z,92.60
2019-03-04T04:08:02.888Z,92.70
2019-03-04T04:10:36.137Z,92.80
2019-03-04T04:13:09.555Z,92.90
2019-03-04T04:15:44.277Z,93.10
2019-03-04T04:21:34.866Z,93.10
2019-03-04T04:24:08.230Z,93.20
2019-03-04T04:26:48.138Z,93.30
2019-03-04T04:29:21.525Z,93.40
2019-03-04T04:31:54.748Z,93.60
2019-03-04T04:34:28.023Z,93.40
2019-03-04T04:37:01.407Z,93.30
2019-03-04T04:39:34.535Z,93.70
2019-03-04T04:42:10.701Z,93.30
2019-03-04T04:45:06.645Z,93.30
2019-03-04T04:47:45.063Z,93.30
2019-03-04T04:50:28.625Z,93.20
2019-03-04T04:53:08.117Z,93.30
2019-03-04T04:55:41.536Z,93.30
2019-03-04T04:58:14.924Z,93.20
2019-03-04T05:00:50.167Z,93.10
2019-03-04T05:03:23.567Z,93.20
2019-03-04T05:05:56.822Z,93.20
2019-03-04T05:08:30.214Z,93.20
2019-03-04T05:11:03.461Z,93.20
2019-03-04T05:13:37.147Z,93.20
2019-03-04T05:16:10.571Z,93.20
2019-03-04T05:18:43.858Z,93.20
2019-03-04T05:24:20.384Z,93.30
2019-03-04T05:26:55.477Z,93.30
2019-03-04T05:29:28.774Z,93.40
2019-03-04T05:32:02.127Z,93.50
2019-03-04T05:34:35.424Z,93.50
2019-03-04T05:37:08.807Z,93.60
2019-03-04T05:39:42.169Z,93.50
2019-03-04T05:42:15.737Z,93.50
2019-03-04T05:44:49.006Z,93.90
2019-03-04T05:47:22.375Z,93.50
2019-03-04T05:49:55.640Z,93.40
2019-03-04T05:52:28.964Z,93.60
2019-03-04T05:55:02.194Z,93.50
2019-03-04T05:57:36.616Z,93.40
2019-03-04T06:00:21.093Z,93.50
2019-03-04T06:02:58.238Z,93.30
2019-03-04T06:05:32.207Z,93.40
2019-03-04T06:08:09.944Z,93.30
2019-03-04T06:10:43.176Z,93.20
2019-03-04T06:13:16.527Z,93.10
2019-03-04T06:15:49.826Z,93.20
2019-03-04T06:18:23.167Z,93.10
2019-03-04T06:20:56.747Z,92.80
2019-03-04T06:23:31.723Z,92.70
2019-03-04T06:26:05.378Z,92.70
2019-03-04T06:28:39.978Z,92.70
2019-03-04T06:31:13.316Z,92.50
2019-03-04T06:33:46.596Z,92.70
2019-03-04T06:36:20.007Z,92.60
2019-03-04T06:38:53.407Z,92.50
2019-03-04T06:41:26.630Z,92.60
2019-03-04T06:43:59.905Z,92.50
2019-03-04T06:46:34.445Z,92.60
2019-03-04T06:49:08.485Z,92.50
2019-03-04T06:51:41.883Z,92.60
2019-03-04T06:54:34.319Z,92.50
2019-03-04T06:57:12.003Z,92.80
2019-03-04T07:00:19.626Z,92.60
2019-03-04T07:02:53.828Z,92.50
2019-03-04T07:05:50.765Z,92.50
2019-03-04T07:08:40.395Z,92.40
2019-03-04T07:11:13.567Z,92.50
2019-03-04T07:13:46.754Z,92.30
2019-03-04T07:16:20.095Z,92.30
2019-03-04T07:18:53.366Z,92.30
2019-03-04T07:21:27.699Z,92.40
2019-03-04T07:24:00.972Z,92.50
2019-03-04T07:26:37.718Z,92.30
2019-03-04T07:29:11.084Z,92.20
2019-03-04T07:31:44.428Z,92.10
2019-03-04T07:34:19.848Z,91.90
2019-03-04T07:36:53.240Z,92.30
2019-03-04T07:39:26.865Z,92.00
2019-03-04T07:42:00.164Z,91.70
2019-03-04T07:44:33.314Z,91.90
2019-03-04T07:47:06.797Z,91.30
2019-03-04T07:49:40.056Z,91.20
2019-03-04T07:52:13.406Z,91.10
2019-03-04T07:54:46.756Z,90.80
2019-03-04T07:57:20.069Z,90.50
2019-03-04T07:59:53.323Z,90.70
2019-03-04T08:02:26.693Z,90.50
2019-03-04T08:05:00.181Z,90.30
2019-03-04T08:07:40.589Z,89.50
2019-03-04T08:10:20.834Z,89.70
2019-03-04T08:13:24.483Z,88.70
2019-03-04T08:15:57.875Z,89.10
2019-03-04T08:18:31.124Z,87.90
2019-03-04T08:21:04.422Z,88.00
2019-03-04T08:23:38.676Z,87.80
2019-03-04T08:26:12.122Z,86.70
2019-03-04T08:28:45.866Z,86.30
2019-03-04T08:31:19.135Z,85.90
2019-03-04T08:33:53.502Z,85.30
2019-03-04T08:36:26.739Z,84.80
2019-03-04T08:39:00.006Z,84.10
2019-03-04T08:41:33.358Z,83.30
2019-03-04T08:44:06.578Z,82.20
2019-03-04T08:46:49.133Z,82.00
2019-03-04T08:49:22.523Z,81.70
2019-03-04T08:51:55.914Z,80.60
2019-03-04T08:54:29.554Z,80.60
2019-03-04T08:57:04.209Z,80.00
2019-03-04T08:59:37.597Z,79.10
2019-03-04T09:02:10.963Z,79.10
2019-03-04T09:04:44.504Z,78.60
2019-03-04T09:07:17.884Z,79.10
2019-03-04T09:09:51.302Z,78.60
2019-03-04T09:12:24.554Z,78.50
2019-03-04T09:14:59.168Z,78.90
2019-03-04T09:17:32.568Z,78.10
2019-03-04T09:20:09.855Z,77.80
2019-03-04T09:22:43.070Z,77.20
2019-03-04T09:25:30.730Z,77.30
2019-03-04T09:28:04.336Z,76.60
2019-03-04T09:30:37.794Z,76.90
2019-03-04T09:33:11.078Z,77.10
2019-03-04T09:35:44.614Z,76.20
2019-03-04T09:38:17.951Z,75.80
2019-03-04T09:40:51.285Z,75.80
2019-03-04T09:43:24.442Z,75.80
2019-03-04T09:46:01.868Z,77.20
2019-03-04T09:48:35.223Z,76.60
2019-03-04T09:51:09.714Z,75.00
2019-03-04T09:53:43.472Z,75.60
2019-03-04T09:56:16.817Z,75.80
2019-03-04T09:58:50.213Z,76.00
2019-03-04T10:01:31.078Z,76.00
2019-03-04T10:04:23.971Z,75.90
2019-03-04T10:07:07.829Z,74.80
2019-03-04T10:09:54.402Z,76.00
2019-03-04T10:12:51.536Z,75.80
2019-03-04T10:15:37.737Z,74.80
2019-03-04T10:18:38.868Z,75.10
2019-03-04T10:21:40.646Z,74.10
2019-03-04T10:24:36.237Z,74.00
2019-03-04T10:27:19.535Z,73.00
2019-03-04T10:30:39.511Z,72.80
2019-03-04T10:33:41.275Z,73.70
2019-03-04T10:36:52.545Z,73.20
2019-03-04T10:39:54.174Z,72.50
2019-03-04T10:42:51.508Z,72.50
2019-03-04T10:46:02.365Z,72.40
2019-03-04T10:48:35.760Z,72.20
2019-03-04T10:51:09.115Z,71.50
2019-03-04T10:53:42.409Z,72.40
2019-03-04T10:56:18.356Z,71.60
2019-03-04T10:58:51.874Z,71.10
2019-03-04T11:01:30.381Z,71.10
2019-03-04T11:04:02.882Z,69.70
2019-03-04T11:06:36.167Z,69.60
2019-03-04T11:09:11.253Z,70.50
2019-03-04T11:11:45.491Z,69.30
2019-03-04T11:14:18.807Z,69.50
2019-03-04T11:16:53.127Z,69.00
2019-03-04T11:19:26.592Z,68.30
2019-03-04T11:21:59.988Z,68.20
2019-03-04T11:24:33.318Z,67.60
2019-03-04T11:27:06.860Z,68.50
2019-03-04T11:29:40.257Z,67.40
2019-03-04T11:32:14.032Z,67.10
2019-03-04T11:34:48.416Z,66.70
2019-03-04T11:37:21.707Z,66.50
2019-03-04T11:39:56.582Z,66.20
2019-03-04T11:42:30.007Z,66.10
2019-03-04T11:45:03.443Z,65.60
2019-03-04T11:47:38.852Z,65.50
2019-03-04T11:50:15.823Z,65.70
2019-03-04T11:52:50.174Z,65.50
2019-03-04T11:55:30.913Z,65.50
2019-03-04T11:58:04.203Z,65.30
2019-03-04T12:00:39.215Z,65.40
2019-03-04T12:03:12.454Z,64.80
2019-03-04T12:05:49.758Z,64.00
2019-03-04T12:08:23.049Z,63.20
2019-03-04T12:10:56.223Z,63.40
2019-03-04T12:13:31.326Z,62.60
2019-03-04T12:16:04.859Z,62.80
2019-03-04T12:18:38.226Z,62.60
2019-03-04T12:21:11.802Z,62.30
2019-03-04T12:23:45.191Z,61.40
2019-03-04T12:26:18.766Z,61.90
2019-03-04T12:28:52.277Z,62.10
2019-03-04T12:31:28.490Z,62.40
2019-03-04T12:34:02.016Z,61.40
2019-03-04T12:36:36.482Z,61.60
2019-03-04T12:39:12.456Z,61.50
2019-03-04T12:41:46.986Z,61.00
2019-03-04T12:53:06.898Z,60.20
2019-03-04T12:55:40.130Z,60.70
2019-03-04T12:58:13.428Z,60.80
2019-03-04T13:00:46.727Z,62.00
2019-03-04T13:03:24.406Z,62.80
2019-03-04T13:05:58.692Z,63.20
2019-03-04T13:08:31.955Z,61.80
2019-03-04T13:11:05.294Z,61.60
2019-03-04T13:13:38.705Z,62.10
2019-03-04T13:16:12.120Z,61.50
2019-03-04T13:18:46.657Z,61.40
2019-03-04T13:21:21.655Z,61.30
2019-03-04T13:23:54.970Z,61.90
2019-03-04T13:26:28.270Z,61.10
2019-03-04T13:29:01.622Z,60.60
2019-03-04T13:31:35.171Z,59.80
2019-03-04T13:34:08.463Z,60.30
2019-03-04T13:36:41.812Z,61.50
2019-03-04T13:39:15.162Z,61.50
2019-03-04T13:41:48.804Z,62.10
2019-03-04T13:44:22.203Z,62.20
2019-03-04T13:46:55.490Z,62.50
2019-03-04T13:49:28.850Z,62.60
2019-03-04T13:52:02.216Z,62.50
2019-03-04T13:54:35.516Z,62.20
2019-03-04T13:57:10.084Z,62.10
2019-03-04T13:59:44.528Z,62.10
2019-03-04T14:02:17.872Z,61.90
2019-03-04T14:04:51.104Z,61.60
2019-03-04T14:07:25.384Z,62.40
2019-03-04T14:09:58.744Z,62.10
2019-03-04T14:12:31.993Z,61.70
2019-03-04T14:15:11.515Z,62.10
2019-03-04T14:17:46.855Z,61.90
2019-03-04T14:20:20.104Z,62.10
2019-03-04T14:22:57.794Z,61.90
2019-03-04T14:25:28.300Z,62.60
2019-03-04T14:28:01.733Z,61.70
2019-03-04T14:30:35.165Z,61.20
2019-03-04T14:33:08.636Z,61.80
2019-03-04T14:35:43.093Z,61.80
2019-03-04T14:38:16.608Z,62.40
2019-03-04T14:40:49.991Z,62.80
2019-03-04T14:43:23.740Z,63.10
2019-03-04T14:45:57.376Z,63.50
2019-03-04T14:48:30.955Z,63.00
2019-03-04T14:51:04.413Z,62.60
2019-03-04T14:53:37.952Z,62.50
2019-03-04T14:56:11.556Z,62.00
2019-03-04T14:58:45.468Z,61.80
2019-03-04T15:01:19.149Z,62.10
2019-03-04T15:03:52.553Z,62.30
2019-03-04T15:06:26.102Z,62.40
2019-03-04T15:08:59.559Z,62.50
2019-03-04T15:11:33.104Z,62.70
2019-03-04T15:14:06.583Z,63.00
2019-03-04T15:16:39.973Z,63.50
2019-03-04T15:19:13.365Z,64.40
2019-03-04T15:21:49.114Z,64.40
2019-03-04T15:24:22.824Z,65.00
2019-03-04T15:26:58.675Z,65.40
2019-03-04T15:29:32.155Z,65.40
2019-03-04T15:32:05.948Z,65.20
2019-03-04T15:34:39.701Z,65.70
2019-03-04T15:37:13.186Z,65.90
2019-03-04T15:39:46.643Z,66.40
2019-03-04T15:42:20.180Z,66.40
2019-03-04T15:44:53.640Z,66.30
2019-03-04T15:47:27.336Z,66.40
2019-03-04T15:50:00.752Z,66.70
2019-03-04T15:52:35.320Z,67.30
2019-03-04T15:55:12.865Z,67.10
2019-03-04T15:57:48.738Z,67.70
2019-03-04T16:00:22.215Z,67.40
2019-03-04T16:02:55.730Z,67.60
2019-03-04T16:05:29.134Z,68.20
2019-03-04T16:08:07.712Z,69.20
2019-03-04T16:10:39.664Z,68.20
2019-03-04T16:13:13.410Z,67.90
2019-03-04T16:15:48.588Z,67.40
2019-03-04T16:18:22.358Z,67.10
2019-03-04T16:20:55.755Z,66.90
2019-03-04T16:23:29.264Z,67.90
2019-03-04T16:26:07.203Z,67.70
2019-03-04T16:28:42.205Z,68.20
2019-03-04T16:31:15.857Z,68.30
2019-03-04T16:33:49.341Z,68.10
2019-03-04T16:36:22.822Z,68.50
2019-03-04T16:38:56.392Z,68.50
2019-03-04T16:41:29.720Z,67.90
2019-03-04T16:44:03.341Z,68.00
2019-03-04T16:46:36.834Z,68.60
2019-03-04T16:49:10.254Z,68.60
2019-03-04T16:51:43.699Z,69.30
2019-03-04T16:54:25.177Z,69.20
2019-03-04T16:56:55.965Z,68.70
2019-03-04T16:59:29.351Z,69.20
2019-03-04T17:02:02.682Z,68.70
2019-03-04T17:04:36.200Z,68.80
2019-03-04T17:07:09.712Z,69.80
2019-03-04T17:09:43.657Z,69.80
2019-03-04T17:12:17.213Z,69.90
2019-03-04T17:14:53.222Z,70.50
2019-03-04T17:17:26.844Z,71.00
2019-03-04T17:20:00.568Z,70.30
2019-03-04T17:22:34.130Z,69.80
2019-03-04T17:25:12.122Z,70.20
2019-03-04T17:27:46.154Z,70.90
2019-03-04T17:30:21.514Z,70.80
2019-03-04T17:32:55.063Z,72.10
2019-03-04T17:35:28.457Z,71.30
2019-03-04T17:38:02.482Z,71.10
2019-03-04T17:40:36.180Z,71.60
2019-03-04T17:43:10.837Z,71.50
2019-03-04T17:45:44.345Z,71.80
2019-03-04T17:48:17.798Z,71.20
2019-03-04T17:50:51.333Z,71.80
2019-03-04T17:53:24.655Z,71.90
2019-03-04T17:55:58.199Z,72.90
2019-03-04T17:58:50.185Z,73.10
2019-03-04T18:01:28.069Z,73.50
2019-03-04T18:04:01.629Z,73.90
2019-03-04T18:06:36.429Z,74.50
2019-03-04T18:09:09.916Z,75.60
2019-03-04T18:11:44.034Z,76.00
2019-03-04T18:14:17.578Z,76.00
2019-03-04T18:16:51.213Z,75.70
2019-03-04T18:19:24.628Z,75.40
2019-03-04T18:21:58.425Z,75.20
2019-03-04T18:24:32.531Z,75.30
2019-03-04T18:27:06.923Z,74.90
2019-03-04T18:30:02.568Z,74.50
2019-03-04T18:33:10.202Z,74.50
2019-03-04T18:36:16.187Z,74.40
2019-03-04T18:39:24.242Z,73.70
2019-03-04T18:42:33.542Z,73.00
2019-03-04T18:45:56.181Z,72.90
2019-03-04T18:49:00.834Z,72.10
2019-03-04T18:51:36.188Z,71.60
2019-03-04T18:54:10.805Z,71.50
2019-03-04T18:56:44.339Z,70.60
2019-03-04T18:59:17.884Z,69.10
2019-03-04T19:01:51.520Z,68.10
2019-03-04T19:04:25.234Z,67.40
2019-03-04T19:06:58.683Z,66.80
2019-03-04T19:09:33.699Z,66.40
2019-03-04T19:12:07.736Z,66.60
2019-03-04T19:14:41.221Z,66.20
2019-03-04T19:17:14.666Z,66.60
2019-03-04T19:19:48.189Z,66.00
2019-03-04T19:22:21.679Z,64.70
2019-03-04T19:24:55.049Z,64.10
2019-03-04T19:27:28.526Z,63.30
2019-03-04T19:30:02.006Z,63.00
2019-03-04T19:32:35.445Z,61.50
2019-03-04T19:35:13.035Z,60.00
2019-03-04T19:37:46.366Z,60.30
2019-03-04T19:40:19.942Z,60.10
2019-03-04T19:42:53.393Z,60.30
2019-03-04T19:45:28.229Z,61.20
2019-03-04T19:48:02.825Z,62.50
2019-03-04T19:50:36.307Z,62.60
2019-03-04T19:53:10.674Z,62.60
2019-03-04T19:55:44.225Z,63.00
2019-03-04T19:58:29.108Z,61.70
2019-03-04T20:01:06.139Z,60.80
2019-03-04T20:03:39.717Z,61.50
2019-03-04T20:06:13.669Z,62.80
2019-03-04T20:08:47.140Z,64.60
2019-03-04T20:11:20.614Z,67.50
2019-03-04T20:13:54.139Z,70.70
2019-03-04T20:16:27.496Z,73.50
2019-03-04T20:19:01.962Z,75.80
2019-03-04T20:21:35.206Z,78.20
2019-03-04T20:24:08.576Z,79.80
2019-03-04T20:26:41.824Z,81.40
2019-03-04T20:29:15.182Z,82.50
2019-03-04T20:31:48.538Z,85.30
2019-03-04T20:34:23.000Z,87.60
2019-03-04T20:36:56.228Z,89.40
2019-03-04T20:39:30.787Z,90.80
2019-03-04T20:42:04.079Z,91.00
2019-03-04T20:44:37.378Z,91.40
2019-03-04T20:47:11.753Z,92.20
2019-03-04T20:49:46.793Z,92.40
2019-03-04T20:52:19.995Z,93.40
2019-03-04T20:54:55.599Z,93.30
2019-03-04T20:57:28.857Z,93.90
2019-03-04T21:00:01.061Z,94.50
2019-03-04T21:02:35.373Z,95.20
2019-03-04T21:05:11.334Z,94.80
2019-03-04T21:07:44.979Z,95.90
2019-03-04T21:10:18.334Z,96.90
2019-03-04T21:12:52.769Z,96.70
2019-03-04T21:15:27.752Z,96.30
2019-03-04T21:18:01.272Z,96.50
2019-03-04T21:20:35.223Z,96.30
2019-03-04T21:23:08.630Z,95.40
2019-03-04T21:26:02.066Z,95.60
2019-03-04T21:29:02.469Z,94.90
2019-03-04T21:32:04.028Z,95.00
2019-03-04T21:35:22.837Z,94.90
2019-03-04T21:37:56.374Z,94.80
2019-03-04T21:40:42.552Z,94.60
2019-03-04T21:43:20.179Z,95.10
2019-03-04T21:46:09.855Z,95.00
2019-03-04T21:48:58.305Z,94.20
2019-03-04T21:51:41.548Z,93.90
2019-03-04T21:54:15.396Z,94.00
2019-03-04T21:56:55.961Z,93.90
2019-03-04T21:59:29.313Z,93.40
2019-03-04T22:02:36.970Z,93.60
2019-03-04T22:05:16.898Z,93.50
2019-03-04T22:07:50.894Z,93.10
2019-03-04T22:10:24.394Z,93.30
2019-03-04T22:12:59.322Z,93.30
2019-03-04T22:15:32.780Z,93.20
2019-03-04T22:18:06.928Z,92.80
2019-03-04T22:20:40.280Z,92.80
2019-03-04T22:23:14.733Z,92.90
2019-03-04T22:25:48.137Z,92.80
2019-03-04T22:28:21.505Z,92.60
2019-03-04T22:30:54.772Z,92.60
2019-03-04T22:33:35.138Z,92.40
2019-03-04T22:36:10.247Z,92.40
2019-03-04T22:38:43.613Z,92.50
2019-03-04T22:41:16.987Z,92.10
2019-03-04T22:43:51.017Z,92.40
2019-03-04T22:46:24.350Z,92.30
2019-03-04T22:48:57.663Z,92.40
2019-03-04T22:51:30.923Z,92.10
2019-03-04T22:54:05.473Z,92.20
2019-03-04T22:56:38.741Z,92.10
2019-03-04T22:59:12.001Z,92.00
2019-03-04T23:01:50.249Z,91.90
2019-03-04T23:04:23.524Z,91.90
2019-03-04T23:07:08.892Z,92.00
2019-03-04T23:09:58.106Z,91.90
2019-03-04T23:12:47.958Z,91.90
2019-03-04T23:15:24.331Z,92.00
2019-03-04T23:17:57.552Z,92.00
2019-03-04T23:20:30.926Z,92.40
2019-03-04T23:23:04.168Z,92.40
2019-03-04T23:25:40.157Z,92.40
2019-03-04T23:28:13.487Z,92.30
2019-03-04T23:30:46.727Z,92.50
2019-03-04T23:33:45.467Z,92.40
2019-03-04T23:43:10.744Z,92.30
2019-03-04T23:45:45.691Z,92.40
2019-03-04T23:48:19.062Z,92.10
2019-03-04T23:50:55.197Z,92.10
2019-03-04T23:53:30.960Z,91.90
2019-03-04T23:56:03.530Z,92.10
2019-03-04T23:58:36.870Z,92.00
